Terminal Aerodrome Forecast
Issued by NWS

Home | Current Version | Previous Version | Graphics & Text | Print | Product List | Glossary On
Versions: 1 2 3 4 5 6 7 8 9 10 11 12 13 14 15
000
FTUS43 KICT 201741
TAFSLN
TAF
KSLN 201741Z 2018/2118 36014KT P6SM BKN025 OVC035
     FM202000 01014KT P6SM OVC035
     FM210100 03006KT P6SM SCT020 BKN035
     FM210900 02004KT 5SM BR SCT020
     FM211400 05006KT P6SM SCT050=

USA.gov is the U.S. government's official web portal to all federal, state and local government web resources and services.